Svitzer Stanlow — MLNF7 — position and weather

sailwx.info

Track history (hours):
 
Tides and Currents Weather Stations Pressure Air Temp Water Temp Dewpoint Dewpoint Depression Visibility Wind Speed Wind Dir Waves Ship Positions

Svitzer Stanlow

Last reported at 2017-May-01 03:58 UTC. Time now 2017-May-01 04:19 UTC.
Position N 53°23' W 002°60'.

Length 39 m.

Type: Tug. MMSI: 235010620.

Date/timePositionNaut miles runAvg speedWind from/ knotsBaromVisibWave heightAir tempDewpointWater temp
2017-May-01 03:58N 53°23' W 002°60'0 0.0
2017-May-01 03:28N 53°23' W 002°60'0 0.0
2017-May-01 02:55N 53°23' W 002°60'0 0.5
2017-May-01 02:25N 53°23' W 003°00'1 1.8
2017-May-01 02:00N 53°24' W 003°00'3 6.5
2017-May-01 01:30N 53°27' W 003°02'4 7.6
2017-May-01 01:00N 53°30' W 003°06'4 8.2
2017-May-01 00:30N 53°31' W 003°12'0 0.3
2017-May-01 00:01N 53°31' W 003°12'4 8.8
2017-Apr-30 23:31N 53°30' W 003°05'3 6.6
2017-Apr-30 23:01N 53°27' W 003°02'4 7.5
2017-Apr-30 22:30N 53°23' W 003°00'1 1.2
2017-Apr-30 21:59N 53°23' W 002°60'0 0.0
2017-Apr-30 21:30N 53°23' W 002°60'0 0.4
2017-Apr-30 21:00N 53°23' W 002°60'0 0.0
2017-Apr-30 20:30N 53°23' W 002°60'0 0.0
2017-Apr-30 20:00N 53°23' W 002°60'0 0.0
2017-Apr-30 19:30N 53°23' W 002°60'0 0.0
2017-Apr-30 18:57N 53°23' W 002°60'0 0.0
2017-Apr-30 18:30N 53°23' W 002°60'0 0.0
2017-Apr-30 18:00N 53°23' W 002°60'0 0.0
2017-Apr-30 17:30N 53°23' W 002°60'0 0.0
2017-Apr-30 17:00N 53°23' W 002°60'0 0.0
2017-Apr-30 16:30N 53°23' W 002°60'0 0.0
2017-Apr-30 16:00N 53°23' W 002°60'0 0.0
2017-Apr-30 15:30N 53°23' W 002°60'0 0.0
2017-Apr-30 15:00N 53°23' W 002°60'0 0.0
2017-Apr-30 14:23N 53°23' W 002°60'1 0.7
2017-Apr-30 13:30N 53°23' W 003°00'3 6.9
2017-Apr-30 13:00N 53°27' W 003°02'5 9.2
2017-Apr-30 12:30N 53°30' W 003°06'4 8.5
2017-Apr-30 12:00N 53°31' W 003°13'2 4.8
2017-Apr-30 11:30N 53°32' W 003°09'4 9.0
2017-Apr-30 11:01N 53°29' W 003°04'4 7.3
2017-Apr-30 10:30N 53°25' W 003°01'3 5.8
2017-Apr-30 10:00N 53°23' W 002°60'0 0.0
2017-Apr-30 09:30N 53°23' W 002°60'0 0.0
2017-Apr-30 09:00N 53°23' W 002°60'0 0.0
2017-Apr-30 08:30N 53°23' W 002°60'0 0.0
2017-Apr-30 08:00N 53°23' W 002°60'0 0.0
2017-Apr-30 07:30N 53°23' W 002°60'0 0.0
2017-Apr-30 07:00N 53°23' W 002°60'0 0.0
2017-Apr-30 06:30N 53°23' W 002°60'0 0.0
2017-Apr-30 06:00N 53°23' W 002°60'0 0.0
2017-Apr-30 05:30N 53°23' W 002°60'0 0.0
2017-Apr-30 04:57N 53°23' W 002°60'0 0.0
2017-Apr-30 04:30N 53°23' W 002°60'0 0.0
2017-Apr-30 03:57N 53°23' W 002°60'0 0.0
2017-Apr-30 03:27N 53°23' W 002°60'0 0.0
2017-Apr-30 02:57N 53°23' W 002°60'0 0.0
2017-Apr-30 02:30N 53°23' W 002°60'0 0.0
2017-Apr-30 02:00N 53°23' W 002°60'0 0.0
2017-Apr-30 01:30N 53°23' W 002°60'0 0.0
2017-Apr-30 01:00N 53°23' W 002°60'0 0.0
2017-Apr-30 00:27N 53°23' W 002°60'0 0.0
2017-Apr-30 00:00N 53°23' W 002°60'0 0.0
2017-Apr-29 23:27N 53°23' W 002°60'0 0.0
2017-Apr-29 23:00N 53°23' W 002°60'0 0.0
2017-Apr-29 22:30N 53°23' W 002°60'0 0.0
2017-Apr-29 21:57N 53°23' W 002°60'0 0.0
2017-Apr-29 21:27N 53°23' W 002°60'0 0.0
2017-Apr-29 20:57N 53°23' W 002°60'0 0.0
2017-Apr-29 20:30N 53°23' W 002°60'0 0.0
2017-Apr-29 20:00N 53°23' W 002°60'0 0.0
2017-Apr-29 19:27N 53°23' W 002°60'0 0.0
2017-Apr-29 19:00N 53°23' W 002°60'0 0.0
2017-Apr-29 18:27N 53°23' W 002°60'0 0.0
2017-Apr-29 17:51N 53°23' W 002°60'0 0.0
2017-Apr-29 17:30N 53°23' W 002°60'0 0.0
2017-Apr-29 17:00N 53°23' W 002°60'0 0.0
2017-Apr-29 16:24N 53°23' W 002°60'0 0.0
2017-Apr-29 15:57N 53°23' W 002°60'0 0.0
2017-Apr-29 15:30N 53°23' W 002°60'0 0.0
2017-Apr-29 14:57N 53°23' W 002°60'0 0.0
2017-Apr-29 13:57N 53°23' W 002°60'0 0.6
2017-Apr-29 13:27N 53°23' W 003°00'0 1.0
2017-Apr-29 13:00N 53°23' W 003°00'3 5.6
2017-Apr-29 12:30N 53°26' W 003°01'4 7.0
2017-Apr-29 12:00N 53°29' W 003°05'4 8.2
2017-Apr-29 11:30N 53°32' W 003°10'4 8.3
2017-Apr-29 11:01N 53°31' W 003°17'510.1
2017-Apr-29 10:30N 53°32' W 003°08'4 8.7
2017-Apr-29 10:00N 53°28' W 003°03'3 4.8
2017-Apr-29 09:29N 53°26' W 003°01'0 0.0
2017-Apr-29 08:59N 53°26' W 003°01'1 1.9
2017-Apr-29 08:28N 53°25' W 003°00'0 0.0
2017-Apr-29 07:52N 53°25' W 003°00'0 0.0
2017-Apr-29 07:28N 53°25' W 003°00'0 0.0
2017-Apr-29 06:55N 53°25' W 003°00'0 0.0
2017-Apr-29 06:28N 53°25' W 003°00'0 0.0
2017-Apr-29 05:58N 53°25' W 003°00'0 0.0
2017-Apr-29 05:28N 53°25' W 003°00'0 0.0
2017-Apr-29 04:58N 53°25' W 003°00'0 0.0
2017-Apr-29 04:28N 53°25' W 003°00'0 0.0
2017-Apr-29 03:58N 53°25' W 003°00'0 0.0
2017-Apr-29 03:28N 53°25' W 003°00'0 0.0
2017-Apr-29 02:58N 53°25' W 003°00'0 0.0
2017-Apr-29 02:28N 53°25' W 003°00'0 0.0
2017-Apr-29 01:58N 53°25' W 003°00'0 0.0
2017-Apr-29 01:25N 53°25' W 003°00'0 0.0
2017-Apr-29 00:58N 53°25' W 003°00'0 0.0
2017-Apr-29 00:28N 53°25' W 003°00'0 0.0
2017-Apr-28 23:58N 53°25' W 003°00'0 0.0
2017-Apr-28 23:25N 53°25' W 003°00'0 0.0
2017-Apr-28 22:58N 53°25' W 003°00'0 0.0
2017-Apr-28 22:28N 53°25' W 003°00'0 0.0
2017-Apr-28 21:58N 53°25' W 003°00'0 0.0
2017-Apr-28 21:28N 53°25' W 003°00'0 0.0
2017-Apr-28 20:58N 53°25' W 003°00'0 0.0
2017-Apr-28 20:28N 53°25' W 003°00'0 0.0
2017-Apr-28 19:58N 53°25' W 003°00'0 0.0
2017-Apr-28 19:28N 53°25' W 003°00'0 0.0
2017-Apr-28 18:58N 53°25' W 003°00'0 0.0
2017-Apr-28 18:28N 53°25' W 003°00'0 0.0
2017-Apr-28 17:58N 53°25' W 003°00'0 0.0
2017-Apr-28 17:28N 53°25' W 003°00'0 0.0
2017-Apr-28 16:55N 53°25' W 003°00'0 0.0
2017-Apr-28 16:28N 53°25' W 003°00'0 0.0
2017-Apr-28 15:58N 53°25' W 003°00'0 0.0
2017-Apr-28 15:25N 53°25' W 003°00'0 0.0
2017-Apr-28 14:58N 53°25' W 003°00'0 0.0
2017-Apr-28 13:55N 53°25' W 003°00'0 0.0
2017-Apr-28 13:25N 53°25' W 003°00'1 2.0
2017-Apr-28 12:53N 53°26' W 003°01'0 0.0
2017-Apr-28 12:29N 53°26' W 003°01'0 0.0
2017-Apr-28 11:59N 53°26' W 003°01'0 0.0
2017-Apr-28 11:29N 53°26' W 003°01'1 1.2
2017-Apr-28 10:59N 53°27' W 003°01'1 1.2
2017-Apr-28 10:30N 53°27' W 003°02'2 3.2
2017-Apr-28 10:00N 53°26' W 003°01'3 5.4
2017-Apr-28 09:28N 53°23' W 003°00'0 0.0
2017-Apr-28 09:01N 53°23' W 003°00'0 0.0
2017-Apr-28 08:31N 53°23' W 003°00'0 0.4
2017-Apr-28 07:59N 53°23' W 002°60'0 0.0
2017-Apr-28 07:26N 53°23' W 002°60'0 0.5
2017-Apr-28 06:59N 53°23' W 003°00'0 0.0
2017-Apr-28 06:29N 53°23' W 003°00'0 0.0
2017-Apr-28 05:59N 53°23' W 003°00'0 0.0
2017-Apr-28 05:26N 53°23' W 003°00'0 0.0
2017-Apr-28 04:56N 53°23' W 003°00'0 0.0
2017-Apr-28 04:29N 53°23' W 003°00'0 0.0
2017-Apr-28 03:59N 53°23' W 003°00'0 0.0
2017-Apr-28 03:29N 53°23' W 003°00'0 0.0
2017-Apr-28 02:59N 53°23' W 003°00'0 0.0
2017-Apr-28 02:26N 53°23' W 003°00'0 0.0
2017-Apr-28 01:59N 53°23' W 003°00'0 0.0
2017-Apr-28 01:29N 53°23' W 003°00'0 0.0
2017-Apr-28 00:59N 53°23' W 003°00'0 0.0
2017-Apr-28 00:29N 53°23' W 003°00'0 0.0
2017-Apr-27 23:59N 53°23' W 003°00'0 0.0
2017-Apr-27 23:29N 53°23' W 003°00'0 0.0
2017-Apr-27 22:59N 53°23' W 003°00'0 0.0
2017-Apr-27 22:29N 53°23' W 003°00'0 0.0
2017-Apr-27 21:59N 53°23' W 003°00'0 0.0
2017-Apr-27 21:29N 53°23' W 003°00'0 0.0
2017-Apr-27 20:59N 53°23' W 003°00'0 0.0
2017-Apr-27 20:29N 53°23' W 003°00'0 0.0
2017-Apr-27 19:59N 53°23' W 003°00'0 0.0
2017-Apr-27 19:28N 53°23' W 003°00'0 0.0
2017-Apr-27 18:58N 53°23' W 003°00'0 0.0
2017-Apr-27 18:28N 53°23' W 003°00'0 0.0
2017-Apr-27 17:58N 53°23' W 003°00'0 0.0
2017-Apr-27 17:28N 53°23' W 003°00'0 0.0
2017-Apr-27 16:58N 53°23' W 003°00'0 0.0
2017-Apr-27 16:28N 53°23' W 003°00'0 0.0
2017-Apr-27 15:58N 53°23' W 003°00'0 0.0
2017-Apr-27 15:28N 53°23' W 003°00'0 0.0
2017-Apr-27 14:52N 53°23' W 003°00'0 0.0
2017-Apr-27 13:52N 53°23' W 003°00'0 0.0
2017-Apr-27 13:28N 53°23' W 003°00'0 0.0
2017-Apr-27 12:52N 53°23' W 003°00'0 0.0
2017-Apr-27 12:28N 53°23' W 003°00'0 0.0
2017-Apr-27 11:58N 53°23' W 003°00'0 0.0
2017-Apr-27 11:25N 53°23' W 003°00'0 0.0
2017-Apr-27 10:58N 53°23' W 003°00'0 0.0
2017-Apr-27 10:28N 53°23' W 003°00'0 0.0
2017-Apr-27 09:55N 53°23' W 003°00'0 0.0
2017-Apr-27 09:28N 53°23' W 003°00'0 0.0
2017-Apr-27 08:58N 53°23' W 003°00'0 0.0
2017-Apr-27 08:28N 53°23' W 003°00'0 0.0
2017-Apr-27 07:58N 53°23' W 003°00'0 0.0
2017-Apr-27 07:22N 53°23' W 003°00'0 0.0
2017-Apr-27 06:55N 53°23' W 003°00'0 0.0
2017-Apr-27 06:28N 53°23' W 003°00'0 0.0
2017-Apr-27 05:58N 53°23' W 003°00'0 0.0
2017-Apr-27 05:28N 53°23' W 003°00'0 0.0
2017-Apr-27 04:58N 53°23' W 003°00'0 0.0
2017-Apr-27 04:25N 53°23' W 003°00'0 0.0
2017-Apr-27 03:58N 53°23' W 003°00'0 0.0
2017-Apr-27 03:28N 53°23' W 003°00'0 0.0
2017-Apr-27 02:58N 53°23' W 003°00'0 0.0
2017-Apr-27 02:28N 53°23' W 003°00'0 0.0
2017-Apr-27 01:58N 53°23' W 003°00'0 0.0
2017-Apr-27 01:28N 53°23' W 003°00'0 0.0
2017-Apr-27 00:58N 53°23' W 003°00'0 0.0
2017-Apr-27 00:28N 53°23' W 003°00'0 0.0
2017-Apr-26 23:58N 53°23' W 003°00'0 0.4
2017-Apr-26 23:29N 53°23' W 002°60'1 1.4
2017-Apr-26 23:00N 53°23' W 003°00'3 5.6
2017-Apr-26 22:30N 53°26' W 003°01'4 8.9
2017-Apr-26 22:00N 53°30' W 003°05'5 9.4
2017-Apr-26 21:30N 53°31' W 003°13'1 1.2
2017-Apr-26 21:00N 53°31' W 003°14'5 9.3
2017-Apr-26 20:30N 53°31' W 003°06'4 7.7
2017-Apr-26 20:00N 53°28' W 003°03'1 2.1
2017-Apr-26 19:28N 53°27' W 003°01'0 0.4
2017-Apr-26 19:01N 53°27' W 003°01'2 3.5
2017-Apr-26 18:29N 53°25' W 003°00'0 0.0
2017-Apr-26 17:56N 53°25' W 003°00'0 0.0
2017-Apr-26 17:29N 53°25' W 003°00'0 0.0
2017-Apr-26 16:59N 53°25' W 003°00'0 0.0
2017-Apr-26 16:29N 53°25' W 003°00'0 0.0
2017-Apr-26 15:59N 53°25' W 003°00'0 0.0
2017-Apr-26 15:29N 53°25' W 003°00'0 0.0
2017-Apr-26 14:53N 53°25' W 003°00'0 0.0
2017-Apr-26 14:20N 53°25' W 003°00'0 0.0
2017-Apr-26 13:29N 53°25' W 003°00'0 0.0
2017-Apr-26 12:59N 53°25' W 003°00'0 0.0
2017-Apr-26 12:29N 53°25' W 003°00'0 0.0
2017-Apr-26 11:59N 53°25' W 003°00'0 0.0
2017-Apr-26 11:26N 53°25' W 003°00'0 0.0
2017-Apr-26 10:59N 53°25' W 003°00'0 0.0
2017-Apr-26 10:29N 53°25' W 003°00'0 0.0
2017-Apr-26 09:59N 53°25' W 003°00'0 0.0
2017-Apr-26 09:29N 53°25' W 003°00'0 0.0
2017-Apr-26 08:59N 53°25' W 003°00'0 0.0
2017-Apr-26 08:29N 53°25' W 003°00'0 0.0
2017-Apr-26 07:59N 53°25' W 003°00'0 0.0
2017-Apr-26 07:29N 53°25' W 003°00'0 0.0
2017-Apr-26 06:59N 53°25' W 003°00'0 0.0
2017-Apr-26 06:29N 53°25' W 003°00'0 0.0
2017-Apr-26 05:59N 53°25' W 003°00'0 0.0
2017-Apr-26 05:26N 53°25' W 003°00'0 0.0
2017-Apr-26 04:59N 53°25' W 003°00'0 0.0
2017-Apr-26 04:29N 53°25' W 003°00'0 0.0
2017-Apr-26 03:59N 53°25' W 003°00'0 0.0
2017-Apr-26 03:29N 53°25' W 003°00'0 0.0
2017-Apr-26 02:59N 53°25' W 003°00'0 0.0
2017-Apr-26 02:29N 53°25' W 003°00'0 0.0
2017-Apr-26 01:59N 53°25' W 003°00'0 0.0
2017-Apr-26 01:29N 53°25' W 003°00'0 0.0
2017-Apr-26 00:58N 53°25' W 003°00'0 0.0
2017-Apr-26 00:28N 53°25' W 003°00'0 0.0
2017-Apr-25 23:55N 53°25' W 003°00'0 0.0
2017-Apr-25 23:28N 53°25' W 003°00'0 0.0
2017-Apr-25 22:58N 53°25' W 003°00'0 0.0
2017-Apr-25 22:28N 53°25' W 003°00'0 0.0
2017-Apr-25 21:58N 53°25' W 003°00'0 0.0
2017-Apr-25 21:25N 53°25' W 003°00'0 0.0
2017-Apr-25 20:58N 53°25' W 003°00'0 0.0
2017-Apr-25 20:25N 53°25' W 003°00'0 0.0
2017-Apr-25 19:55N 53°25' W 003°00'1 2.2
2017-Apr-25 19:28N 53°26' W 003°01'0 0.4
2017-Apr-25 19:00N 53°26' W 003°01'4 7.4
2017-Apr-25 18:30N 53°23' W 002°60'0 0.0
2017-Apr-25 18:00N 53°23' W 002°60'0 0.0
2017-Apr-25 17:30N 53°23' W 002°60'0 0.0
2017-Apr-25 16:57N 53°23' W 002°60'0 0.0
2017-Apr-25 16:30N 53°23' W 002°60'0 0.0
2017-Apr-25 15:57N 53°23' W 002°60'0 0.0
2017-Apr-25 15:30N 53°23' W 002°60'0 0.0
2017-Apr-25 15:00N 53°23' W 002°60'0 0.0
2017-Apr-25 14:30N 53°23' W 002°60'0 0.0
2017-Apr-25 13:30N 53°23' W 002°60'0 0.0
2017-Apr-25 13:00N 53°23' W 002°60'0 0.0
2017-Apr-25 12:30N 53°23' W 002°60'0 0.0
2017-Apr-25 12:00N 53°23' W 002°60'0 0.0
2017-Apr-25 11:30N 53°23' W 002°60'0 0.0
2017-Apr-25 11:00N 53°23' W 002°60'0 0.1
2017-Apr-25 10:30N 53°23' W 002°60'0 0.0
2017-Apr-25 10:00N 53°23' W 002°60'0 0.0
2017-Apr-25 09:30N 53°23' W 002°60'0 0.0
2017-Apr-25 09:00N 53°23' W 002°60'0 0.0
2017-Apr-25 08:27N 53°23' W 002°60'0 0.0
2017-Apr-25 08:00N 53°23' W 002°60'0 0.0
2017-Apr-25 07:30N 53°23' W 002°60'0 0.0
2017-Apr-25 07:00N 53°23' W 002°60'0 0.0
2017-Apr-25 06:30N 53°23' W 002°60'0 0.0
2017-Apr-25 06:00N 53°23' W 002°60'0 0.0
2017-Apr-25 05:30N 53°23' W 002°60'0 0.0
2017-Apr-25 05:00N 53°23' W 002°60'0 0.0
2017-Apr-25 04:30N 53°23' W 002°60'0 0.0
2017-Apr-25 04:00N 53°23' W 002°60'0 0.0
2017-Apr-25 03:30N 53°23' W 002°60'0 0.0
2017-Apr-25 02:59N 53°23' W 002°60'0 0.0
2017-Apr-25 02:29N 53°23' W 002°60'0 0.0
2017-Apr-25 01:56N 53°23' W 002°60'0 0.0
2017-Apr-25 01:29N 53°23' W 002°60'0 0.0
2017-Apr-25 00:53N 53°23' W 002°60'0 0.0
2017-Apr-25 00:29N 53°23' W 002°60'0 0.0
2017-Apr-24 23:59N 53°23' W 002°60'0 0.0
2017-Apr-24 23:29N 53°23' W 002°60'0 0.0
2017-Apr-24 22:59N 53°23' W 002°60'0 0.0
2017-Apr-24 22:29N 53°23' W 002°60'0 0.0
2017-Apr-24 21:59N 53°23' W 002°60'0 0.0
2017-Apr-24 21:29N 53°23' W 002°60'0 0.0
2017-Apr-24 20:59N 53°23' W 002°60'0 0.0
2017-Apr-24 20:29N 53°23' W 002°60'0 0.0
2017-Apr-24 19:59N 53°23' W 002°60'0 0.3
2017-Apr-24 19:30N 53°23' W 002°60'0 0.2
2017-Apr-24 18:58N 53°23' W 003°00'0 0.0
2017-Apr-24 18:28N 53°23' W 003°00'0 0.0
2017-Apr-24 17:55N 53°23' W 003°00'0 0.9
2017-Apr-24 17:30N 53°23' W 003°00'1 2.1
2017-Apr-24 16:59N 53°24' W 003°00'1 2.9
2017-Apr-24 16:29N 53°23' W 003°00'0 0.0
2017-Apr-24 15:59N 53°23' W 003°00'0 0.0
2017-Apr-24 15:23N 53°23' W 003°00'0 0.0
2017-Apr-24 14:59N 53°23' W 003°00'0 0.0
2017-Apr-24 14:29N 53°23' W 003°00'0 0.0
2017-Apr-24 13:29N 53°23' W 003°00'0 0.0
2017-Apr-24 12:58N 53°23' W 003°00'0 0.0
2017-Apr-24 12:22N 53°23' W 003°00'0 0.0
2017-Apr-24 11:58N 53°23' W 003°00'0 0.0
2017-Apr-24 11:28N 53°23' W 003°00'0 0.0
2017-Apr-24 10:58N 53°23' W 003°00'0 0.0
2017-Apr-24 10:28N 53°23' W 003°00'0 0.0
2017-Apr-24 09:58N 53°23' W 003°00'0 0.0
2017-Apr-24 09:28N 53°23' W 003°00'0 0.0
2017-Apr-24 08:58N 53°23' W 003°00'0 0.0
2017-Apr-24 08:25N 53°23' W 003°00'0 0.0
2017-Apr-24 07:58N 53°23' W 003°00'0 0.0
2017-Apr-24 07:25N 53°23' W 003°00'0 0.0
2017-Apr-24 06:58N 53°23' W 003°00'0 0.0
2017-Apr-24 06:28N 53°23' W 003°00'0 0.0
2017-Apr-24 05:58N 53°23' W 003°00'0 0.0
2017-Apr-24 05:28N 53°23' W 003°00'0 0.0
2017-Apr-24 04:58N 53°23' W 003°00'0 0.0
2017-Apr-24 04:28N 53°23' W 003°00'0 0.0
2017-Apr-24 03:58N 53°23' W 003°00'0 0.0
2017-Apr-24 03:28N 53°23' W 003°00'0 0.0
2017-Apr-24 02:52N 53°23' W 003°00'0 0.0
2017-Apr-24 02:28N 53°23' W 003°00'0 0.0
2017-Apr-24 01:58N 53°23' W 003°00'0 0.0
2017-Apr-24 01:28N 53°23' W 003°00'0 0.0
2017-Apr-24 00:58N 53°23' W 003°00'0 0.0
2017-Apr-24 00:25N 53°23' W 003°00'0 0.0
2017-Apr-23 23:58N 53°23' W 003°00'0 0.0
2017-Apr-23 23:28N 53°23' W 003°00'0 0.0
2017-Apr-23 22:58N 53°23' W 003°00'0 0.0
2017-Apr-23 22:28N 53°23' W 003°00'0 0.4
2017-Apr-23 21:59N 53°23' W 002°60'0 0.0
2017-Apr-23 21:29N 53°23' W 002°60'0 0.3
2017-Apr-23 20:59N 53°23' W 002°60'2 3.5
2017-Apr-23 20:30N 53°24' W 003°01'3 6.6
2017-Apr-23 20:00N 53°28' W 003°03'4 9.0
2017-Apr-23 19:30N 53°31' W 003°07'5 9.2
2017-Apr-23 19:00N 53°31' W 003°15'1 1.8
2017-Apr-23 18:30N 53°31' W 003°13'4 8.4
2017-Apr-23 18:00N 53°31' W 003°06'4 8.2
2017-Apr-23 17:30N 53°27' W 003°02'1 1.5
2017-Apr-23 16:56N 53°27' W 003°01'2 3.7
2017-Apr-23 16:29N 53°25' W 003°00'0 0.0
2017-Apr-23 15:59N 53°25' W 003°00'0 0.0
2017-Apr-23 15:29N 53°25' W 003°00'0 0.0
2017-Apr-23 14:59N 53°25' W 003°00'0 0.0
2017-Apr-23 13:59N 53°25' W 003°00'0 0.0
2017-Apr-23 13:29N 53°25' W 003°00'0 0.0
2017-Apr-23 12:59N 53°25' W 003°00'0 0.0
2017-Apr-23 12:26N 53°25' W 003°00'0 0.0
2017-Apr-23 11:59N 53°25' W 003°00'0 0.0
2017-Apr-23 11:29N 53°25' W 003°00'0 0.0
2017-Apr-23 10:59N 53°25' W 003°00'0 0.0
2017-Apr-23 10:29N 53°25' W 003°00'0 0.0
2017-Apr-23 09:59N 53°25' W 003°00'0 0.0
2017-Apr-23 09:29N 53°25' W 003°00'0 0.0
2017-Apr-23 08:59N 53°25' W 003°00'0 0.0
2017-Apr-23 08:29N 53°25' W 003°00'0 0.0
2017-Apr-23 07:59N 53°25' W 003°00'0 0.0
2017-Apr-23 07:29N 53°25' W 003°00'0 0.0
2017-Apr-23 06:58N 53°25' W 003°00'0 0.0
2017-Apr-23 06:25N 53°25' W 003°00'0 0.0
2017-Apr-23 05:55N 53°25' W 003°00'0 0.0
2017-Apr-23 05:25N 53°25' W 003°00'0 0.0
2017-Apr-23 04:58N 53°25' W 003°00'0 0.0
2017-Apr-23 04:25N 53°25' W 003°00'0 0.0
2017-Apr-23 03:58N 53°25' W 003°00'0 0.0
2017-Apr-23 03:28N 53°25' W 003°00'0 0.0
2017-Apr-23 02:58N 53°25' W 003°00'0 0.0
2017-Apr-23 02:28N 53°25' W 003°00'0 0.0
2017-Apr-23 01:58N 53°25' W 003°00'0 0.0
2017-Apr-23 01:25N 53°25' W 003°00'0 0.0
2017-Apr-23 00:58N 53°25' W 003°00'0 0.0
2017-Apr-23 00:28N 53°25' W 003°00'0 0.0
2017-Apr-22 23:58N 53°25' W 003°00'0 0.0
2017-Apr-22 23:28N 53°25' W 003°00'0 0.0
2017-Apr-22 22:52N 53°25' W 003°00'0 0.0
2017-Apr-22 22:28N 53°25' W 003°00'0 0.0
2017-Apr-22 21:58N 53°25' W 003°00'0 0.0
2017-Apr-22 21:28N 53°25' W 003°00'0 0.0
2017-Apr-22 20:55N 53°25' W 003°00'0 0.0
2017-Apr-22 20:25N 53°25' W 003°00'0 0.0
2017-Apr-22 19:58N 53°25' W 003°00'0 0.0
2017-Apr-22 19:28N 53°25' W 003°00'0 0.0
2017-Apr-22 18:55N 53°25' W 003°00'0 0.0
2017-Apr-22 18:28N 53°25' W 003°00'0 0.0
2017-Apr-22 17:55N 53°25' W 003°00'0 0.0
2017-Apr-22 17:28N 53°25' W 003°00'0 0.0
2017-Apr-22 16:55N 53°25' W 003°00'0 0.0
2017-Apr-22 16:28N 53°25' W 003°00'0 0.0
2017-Apr-22 15:58N 53°25' W 003°00'0 0.0
2017-Apr-22 15:28N 53°25' W 003°00'0 0.0
2017-Apr-22 14:52N 53°25' W 003°00'0 0.0
2017-Apr-22 14:28N 53°25' W 003°00'0 0.0
2017-Apr-22 13:25N 53°25' W 003°00'0 0.0
2017-Apr-22 12:58N 53°25' W 003°00'0 0.0
2017-Apr-22 12:28N 53°25' W 003°00'0 0.0
2017-Apr-22 11:58N 53°25' W 003°00'0 0.0
2017-Apr-22 11:28N 53°25' W 003°00'0 0.0
2017-Apr-22 10:58N 53°25' W 003°00'0 0.0
2017-Apr-22 10:28N 53°25' W 003°00'0 0.0
2017-Apr-22 09:55N 53°25' W 003°00'0 0.0
2017-Apr-22 09:28N 53°25' W 003°00'0 0.0
2017-Apr-22 08:55N 53°25' W 003°00'0 0.0
2017-Apr-22 08:28N 53°25' W 003°00'0 0.0
2017-Apr-22 07:55N 53°25' W 003°00'0 0.0
2017-Apr-22 07:28N 53°25' W 003°00'1 2.1
2017-Apr-22 07:00N 53°26' W 003°00'1 2.5
2017-Apr-22 06:30N 53°28' W 003°01'0 0.6
2017-Apr-22 05:57N 53°27' W 003°01'0 0.4
2017-Apr-22 05:30N 53°27' W 003°01'0 0.2
2017-Apr-22 04:54N 53°27' W 003°01'0 0.6
2017-Apr-22 04:30N 53°27' W 003°01'0 0.9
2017-Apr-22 03:58N 53°28' W 003°02'0 0.6
2017-Apr-22 03:25N 53°28' W 003°01'0 0.0
2017-Apr-22 02:58N 53°28' W 003°01'0 0.0
2017-Apr-22 02:25N 53°28' W 003°01'0 0.0
2017-Apr-22 01:58N 53°28' W 003°01'0 0.0
2017-Apr-22 01:28N 53°28' W 003°01'0 0.0
2017-Apr-22 00:58N 53°28' W 003°01'0 0.0
2017-Apr-22 00:22N 53°28' W 003°01'0 0.0
2017-Apr-21 23:55N 53°28' W 003°01'0 0.0
2017-Apr-21 23:25N 53°28' W 003°01'0 0.0
2017-Apr-21 22:58N 53°28' W 003°01'0 0.0
2017-Apr-21 22:28N 53°28' W 003°01'0 0.0
2017-Apr-21 21:58N 53°28' W 003°01'0 0.0
2017-Apr-21 21:28N 53°28' W 003°01'0 0.0
2017-Apr-21 20:58N 53°28' W 003°01'0 0.0
2017-Apr-21 20:28N 53°28' W 003°01'0 0.5
2017-Apr-21 19:52N 53°28' W 003°01'0 1.0
2017-Apr-21 19:28N 53°27' W 003°01'0 0.4
2017-Apr-21 18:59N 53°27' W 003°01'0 0.2
2017-Apr-21 18:27N 53°27' W 003°01'0 0.3
2017-Apr-21 17:58N 53°27' W 003°01'0 0.5
2017-Apr-21 17:28N 53°27' W 003°01'1 2.3
2017-Apr-21 16:59N 53°26' W 003°00'1 1.7
2017-Apr-21 16:30N 53°25' W 003°00'0 0.0
2017-Apr-21 15:54N 53°25' W 003°00'0 0.0
2017-Apr-21 15:27N 53°25' W 003°00'0 0.0
2017-Apr-21 15:00N 53°25' W 003°00'0 0.0
2017-Apr-21 14:30N 53°25' W 003°00'0 0.0
2017-Apr-21 13:30N 53°25' W 003°00'0 0.0
2017-Apr-21 13:00N 53°25' W 003°00'0 0.0
2017-Apr-21 12:30N 53°25' W 003°00'0 0.0
2017-Apr-21 12:00N 53°25' W 003°00'0 0.0
2017-Apr-21 11:27N 53°25' W 003°00'0 0.0
2017-Apr-21 11:00N 53°25' W 003°00'0 0.0
2017-Apr-21 10:27N 53°25' W 003°00'0 0.0
2017-Apr-21 10:00N 53°25' W 003°00'0 0.0
2017-Apr-21 09:30N 53°25' W 003°00'0 0.0
2017-Apr-21 08:57N 53°25' W 003°00'0 0.0
2017-Apr-21 08:27N 53°25' W 003°00'0 0.0
2017-Apr-21 07:48N 53°25' W 003°00'0 0.0
2017-Apr-21 07:30N 53°25' W 003°00'0 0.0
2017-Apr-21 07:00N 53°25' W 003°00'0 0.0
2017-Apr-21 06:30N 53°25' W 003°00'0 0.0
2017-Apr-21 06:00N 53°25' W 003°00'0 0.0
2017-Apr-21 05:30N 53°25' W 003°00'0 0.0
2017-Apr-21 04:57N 53°25' W 003°00'0 0.0
2017-Apr-21 04:30N 53°25' W 003°00'0 0.0
2017-Apr-21 04:00N 53°25' W 003°00'  
Track history (hours):
 
Tides and Currents Weather Stations Pressure Air Temp Water Temp Dewpoint Dewpoint Depression Visibility Wind Speed Wind Dir Waves Ship Positions

Svitzer Stanlow

Last reported at 2017-May-01 03:58 UTC. Time now 2017-May-01 04:19 UTC.
Position N 53°23' W 002°60'.

Length 39 m.

Type: Tug. MMSI: 235010620.

Date/timePositionNaut miles runAvg speedWind from/ knotsBaromVisibWave heightAir tempDewpointWater temp
2017-May-01 03:58N 53°23' W 002°60'0 0.0
2017-May-01 03:28N 53°23' W 002°60'0 0.0
2017-May-01 02:55N 53°23' W 002°60'0 0.5
2017-May-01 02:25N 53°23' W 003°00'1 1.8
2017-May-01 02:00N 53°24' W 003°00'3 6.5
2017-May-01 01:30N 53°27' W 003°02'4 7.6
2017-May-01 01:00N 53°30' W 003°06'4 8.2
2017-May-01 00:30N 53°31' W 003°12'0 0.3
2017-May-01 00:01N 53°31' W 003°12'4 8.8
2017-Apr-30 23:31N 53°30' W 003°05'3 6.6
2017-Apr-30 23:01N 53°27' W 003°02'4 7.5
2017-Apr-30 22:30N 53°23' W 003°00'1 1.2
2017-Apr-30 21:59N 53°23' W 002°60'0 0.0
2017-Apr-30 21:30N 53°23' W 002°60'0 0.4
2017-Apr-30 21:00N 53°23' W 002°60'0 0.0
2017-Apr-30 20:30N 53°23' W 002°60'0 0.0
2017-Apr-30 20:00N 53°23' W 002°60'0 0.0
2017-Apr-30 19:30N 53°23' W 002°60'0 0.0
2017-Apr-30 18:57N 53°23' W 002°60'0 0.0
2017-Apr-30 18:30N 53°23' W 002°60'0 0.0
2017-Apr-30 18:00N 53°23' W 002°60'0 0.0
2017-Apr-30 17:30N 53°23' W 002°60'0 0.0
2017-Apr-30 17:00N 53°23' W 002°60'0 0.0
2017-Apr-30 16:30N 53°23' W 002°60'0 0.0
2017-Apr-30 16:00N 53°23' W 002°60'0 0.0
2017-Apr-30 15:30N 53°23' W 002°60'0 0.0
2017-Apr-30 15:00N 53°23' W 002°60'0 0.0
2017-Apr-30 14:23N 53°23' W 002°60'1 0.7
2017-Apr-30 13:30N 53°23' W 003°00'3 6.9
2017-Apr-30 13:00N 53°27' W 003°02'5 9.2
2017-Apr-30 12:30N 53°30' W 003°06'4 8.5
2017-Apr-30 12:00N 53°31' W 003°13'2 4.8
2017-Apr-30 11:30N 53°32' W 003°09'4 9.0
2017-Apr-30 11:01N 53°29' W 003°04'4 7.3
2017-Apr-30 10:30N 53°25' W 003°01'3 5.8
2017-Apr-30 10:00N 53°23' W 002°60'0 0.0
2017-Apr-30 09:30N 53°23' W 002°60'0 0.0
2017-Apr-30 09:00N 53°23' W 002°60'0 0.0
2017-Apr-30 08:30N 53°23' W 002°60'0 0.0
2017-Apr-30 08:00N 53°23' W 002°60'0 0.0
2017-Apr-30 07:30N 53°23' W 002°60'0 0.0
2017-Apr-30 07:00N 53°23' W 002°60'0 0.0
2017-Apr-30 06:30N 53°23' W 002°60'0 0.0
2017-Apr-30 06:00N 53°23' W 002°60'0 0.0
2017-Apr-30 05:30N 53°23' W 002°60'0 0.0
2017-Apr-30 04:57N 53°23' W 002°60'0 0.0
2017-Apr-30 04:30N 53°23' W 002°60'0 0.0
2017-Apr-30 03:57N 53°23' W 002°60'0 0.0
2017-Apr-30 03:27N 53°23' W 002°60'0 0.0
2017-Apr-30 02:57N 53°23' W 002°60'0 0.0
2017-Apr-30 02:30N 53°23' W 002°60'0 0.0
2017-Apr-30 02:00N 53°23' W 002°60'0 0.0
2017-Apr-30 01:30N 53°23' W 002°60'0 0.0
2017-Apr-30 01:00N 53°23' W 002°60'0 0.0
2017-Apr-30 00:27N 53°23' W 002°60'0 0.0
2017-Apr-30 00:00N 53°23' W 002°60'0 0.0
2017-Apr-29 23:27N 53°23' W 002°60'0 0.0
2017-Apr-29 23:00N 53°23' W 002°60'0 0.0
2017-Apr-29 22:30N 53°23' W 002°60'0 0.0
2017-Apr-29 21:57N 53°23' W 002°60'0 0.0
2017-Apr-29 21:27N 53°23' W 002°60'0 0.0
2017-Apr-29 20:57N 53°23' W 002°60'0 0.0
2017-Apr-29 20:30N 53°23' W 002°60'0 0.0
2017-Apr-29 20:00N 53°23' W 002°60'0 0.0
2017-Apr-29 19:27N 53°23' W 002°60'0 0.0
2017-Apr-29 19:00N 53°23' W 002°60'0 0.0
2017-Apr-29 18:27N 53°23' W 002°60'0 0.0
2017-Apr-29 17:51N 53°23' W 002°60'0 0.0
2017-Apr-29 17:30N 53°23' W 002°60'0 0.0
2017-Apr-29 17:00N 53°23' W 002°60'0 0.0
2017-Apr-29 16:24N 53°23' W 002°60'0 0.0
2017-Apr-29 15:57N 53°23' W 002°60'0 0.0
2017-Apr-29 15:30N 53°23' W 002°60'0 0.0
2017-Apr-29 14:57N 53°23' W 002°60'0 0.0
2017-Apr-29 13:57N 53°23' W 002°60'0 0.6
2017-Apr-29 13:27N 53°23' W 003°00'0 1.0
2017-Apr-29 13:00N 53°23' W 003°00'3 5.6
2017-Apr-29 12:30N 53°26' W 003°01'4 7.0
2017-Apr-29 12:00N 53°29' W 003°05'4 8.2
2017-Apr-29 11:30N 53°32' W 003°10'4 8.3
2017-Apr-29 11:01N 53°31' W 003°17'510.1
2017-Apr-29 10:30N 53°32' W 003°08'4 8.7
2017-Apr-29 10:00N 53°28' W 003°03'3 4.8
2017-Apr-29 09:29N 53°26' W 003°01'0 0.0
2017-Apr-29 08:59N 53°26' W 003°01'1 1.9
2017-Apr-29 08:28N 53°25' W 003°00'0 0.0
2017-Apr-29 07:52N 53°25' W 003°00'0 0.0
2017-Apr-29 07:28N 53°25' W 003°00'0 0.0
2017-Apr-29 06:55N 53°25' W 003°00'0 0.0
2017-Apr-29 06:28N 53°25' W 003°00'0 0.0
2017-Apr-29 05:58N 53°25' W 003°00'0 0.0
2017-Apr-29 05:28N 53°25' W 003°00'0 0.0
2017-Apr-29 04:58N 53°25' W 003°00'0 0.0
2017-Apr-29 04:28N 53°25' W 003°00'0 0.0
2017-Apr-29 03:58N 53°25' W 003°00'0 0.0
2017-Apr-29 03:28N 53°25' W 003°00'0 0.0
2017-Apr-29 02:58N 53°25' W 003°00'0 0.0
2017-Apr-29 02:28N 53°25' W 003°00'0 0.0
2017-Apr-29 01:58N 53°25' W 003°00'0 0.0
2017-Apr-29 01:25N 53°25' W 003°00'0 0.0
2017-Apr-29 00:58N 53°25' W 003°00'0 0.0
2017-Apr-29 00:28N 53°25' W 003°00'0 0.0
2017-Apr-28 23:58N 53°25' W 003°00'0 0.0
2017-Apr-28 23:25N 53°25' W 003°00'0 0.0
2017-Apr-28 22:58N 53°25' W 003°00'0 0.0
2017-Apr-28 22:28N 53°25' W 003°00'0 0.0
2017-Apr-28 21:58N 53°25' W 003°00'0 0.0
2017-Apr-28 21:28N 53°25' W 003°00'0 0.0
2017-Apr-28 20:58N 53°25' W 003°00'0 0.0
2017-Apr-28 20:28N 53°25' W 003°00'0 0.0
2017-Apr-28 19:58N 53°25' W 003°00'0 0.0
2017-Apr-28 19:28N 53°25' W 003°00'0 0.0
2017-Apr-28 18:58N 53°25' W 003°00'0 0.0
2017-Apr-28 18:28N 53°25' W 003°00'0 0.0
2017-Apr-28 17:58N 53°25' W 003°00'0 0.0
2017-Apr-28 17:28N 53°25' W 003°00'0 0.0
2017-Apr-28 16:55N 53°25' W 003°00'0 0.0
2017-Apr-28 16:28N 53°25' W 003°00'0 0.0
2017-Apr-28 15:58N 53°25' W 003°00'0 0.0
2017-Apr-28 15:25N 53°25' W 003°00'0 0.0
2017-Apr-28 14:58N 53°25' W 003°00'0 0.0
2017-Apr-28 13:55N 53°25' W 003°00'0 0.0
2017-Apr-28 13:25N 53°25' W 003°00'1 2.0
2017-Apr-28 12:53N 53°26' W 003°01'0 0.0
2017-Apr-28 12:29N 53°26' W 003°01'0 0.0
2017-Apr-28 11:59N 53°26' W 003°01'0 0.0
2017-Apr-28 11:29N 53°26' W 003°01'1 1.2
2017-Apr-28 10:59N 53°27' W 003°01'1 1.2
2017-Apr-28 10:30N 53°27' W 003°02'2 3.2
2017-Apr-28 10:00N 53°26' W 003°01'3 5.4
2017-Apr-28 09:28N 53°23' W 003°00'0 0.0
2017-Apr-28 09:01N 53°23' W 003°00'0 0.0
2017-Apr-28 08:31N 53°23' W 003°00'0 0.4
2017-Apr-28 07:59N 53°23' W 002°60'0 0.0
2017-Apr-28 07:26N 53°23' W 002°60'0 0.5
2017-Apr-28 06:59N 53°23' W 003°00'0 0.0
2017-Apr-28 06:29N 53°23' W 003°00'0 0.0
2017-Apr-28 05:59N 53°23' W 003°00'0 0.0
2017-Apr-28 05:26N 53°23' W 003°00'0 0.0
2017-Apr-28 04:56N 53°23' W 003°00'0 0.0
2017-Apr-28 04:29N 53°23' W 003°00'0 0.0
2017-Apr-28 03:59N 53°23' W 003°00'0 0.0
2017-Apr-28 03:29N 53°23' W 003°00'0 0.0
2017-Apr-28 02:59N 53°23' W 003°00'0 0.0
2017-Apr-28 02:26N 53°23' W 003°00'0 0.0
2017-Apr-28 01:59N 53°23' W 003°00'0 0.0
2017-Apr-28 01:29N 53°23' W 003°00'0 0.0
2017-Apr-28 00:59N 53°23' W 003°00'0 0.0
2017-Apr-28 00:29N 53°23' W 003°00'0 0.0
2017-Apr-27 23:59N 53°23' W 003°00'0 0.0
2017-Apr-27 23:29N 53°23' W 003°00'0 0.0
2017-Apr-27 22:59N 53°23' W 003°00'0 0.0
2017-Apr-27 22:29N 53°23' W 003°00'0 0.0
2017-Apr-27 21:59N 53°23' W 003°00'0 0.0
2017-Apr-27 21:29N 53°23' W 003°00'0 0.0
2017-Apr-27 20:59N 53°23' W 003°00'0 0.0
2017-Apr-27 20:29N 53°23' W 003°00'0 0.0
2017-Apr-27 19:59N 53°23' W 003°00'0 0.0
2017-Apr-27 19:28N 53°23' W 003°00'0 0.0
2017-Apr-27 18:58N 53°23' W 003°00'0 0.0
2017-Apr-27 18:28N 53°23' W 003°00'0 0.0
2017-Apr-27 17:58N 53°23' W 003°00'0 0.0
2017-Apr-27 17:28N 53°23' W 003°00'0 0.0
2017-Apr-27 16:58N 53°23' W 003°00'0 0.0
2017-Apr-27 16:28N 53°23' W 003°00'0 0.0
2017-Apr-27 15:58N 53°23' W 003°00'0 0.0
2017-Apr-27 15:28N 53°23' W 003°00'0 0.0
2017-Apr-27 14:52N 53°23' W 003°00'0 0.0
2017-Apr-27 13:52N 53°23' W 003°00'0 0.0
2017-Apr-27 13:28N 53°23' W 003°00'0 0.0
2017-Apr-27 12:52N 53°23' W 003°00'0 0.0
2017-Apr-27 12:28N 53°23' W 003°00'0 0.0
2017-Apr-27 11:58N 53°23' W 003°00'0 0.0
2017-Apr-27 11:25N 53°23' W 003°00'0 0.0
2017-Apr-27 10:58N 53°23' W 003°00'0 0.0
2017-Apr-27 10:28N 53°23' W 003°00'0 0.0
2017-Apr-27 09:55N 53°23' W 003°00'0 0.0
2017-Apr-27 09:28N 53°23' W 003°00'0 0.0
2017-Apr-27 08:58N 53°23' W 003°00'0 0.0
2017-Apr-27 08:28N 53°23' W 003°00'0 0.0
2017-Apr-27 07:58N 53°23' W 003°00'0 0.0
2017-Apr-27 07:22N 53°23' W 003°00'0 0.0
2017-Apr-27 06:55N 53°23' W 003°00'0 0.0
2017-Apr-27 06:28N 53°23' W 003°00'0 0.0
2017-Apr-27 05:58N 53°23' W 003°00'0 0.0
2017-Apr-27 05:28N 53°23' W 003°00'0 0.0
2017-Apr-27 04:58N 53°23' W 003°00'0 0.0
2017-Apr-27 04:25N 53°23' W 003°00'0 0.0
2017-Apr-27 03:58N 53°23' W 003°00'0 0.0
2017-Apr-27 03:28N 53°23' W 003°00'0 0.0
2017-Apr-27 02:58N 53°23' W 003°00'0 0.0
2017-Apr-27 02:28N 53°23' W 003°00'0 0.0
2017-Apr-27 01:58N 53°23' W 003°00'0 0.0
2017-Apr-27 01:28N 53°23' W 003°00'0 0.0
2017-Apr-27 00:58N 53°23' W 003°00'0 0.0
2017-Apr-27 00:28N 53°23' W 003°00'0 0.0
2017-Apr-26 23:58N 53°23' W 003°00'0 0.4
2017-Apr-26 23:29N 53°23' W 002°60'1 1.4
2017-Apr-26 23:00N 53°23' W 003°00'3 5.6
2017-Apr-26 22:30N 53°26' W 003°01'4 8.9
2017-Apr-26 22:00N 53°30' W 003°05'5 9.4
2017-Apr-26 21:30N 53°31' W 003°13'1 1.2
2017-Apr-26 21:00N 53°31' W 003°14'5 9.3
2017-Apr-26 20:30N 53°31' W 003°06'4 7.7
2017-Apr-26 20:00N 53°28' W 003°03'1 2.1
2017-Apr-26 19:28N 53°27' W 003°01'0 0.4
2017-Apr-26 19:01N 53°27' W 003°01'2 3.5
2017-Apr-26 18:29N 53°25' W 003°00'0 0.0
2017-Apr-26 17:56N 53°25' W 003°00'0 0.0
2017-Apr-26 17:29N 53°25' W 003°00'0 0.0
2017-Apr-26 16:59N 53°25' W 003°00'0 0.0
2017-Apr-26 16:29N 53°25' W 003°00'0 0.0
2017-Apr-26 15:59N 53°25' W 003°00'0 0.0
2017-Apr-26 15:29N 53°25' W 003°00'0 0.0
2017-Apr-26 14:53N 53°25' W 003°00'0 0.0
2017-Apr-26 14:20N 53°25' W 003°00'0 0.0
2017-Apr-26 13:29N 53°25' W 003°00'0 0.0
2017-Apr-26 12:59N 53°25' W 003°00'0 0.0
2017-Apr-26 12:29N 53°25' W 003°00'0 0.0
2017-Apr-26 11:59N 53°25' W 003°00'0 0.0
2017-Apr-26 11:26N 53°25' W 003°00'0 0.0
2017-Apr-26 10:59N 53°25' W 003°00'0 0.0
2017-Apr-26 10:29N 53°25' W 003°00'0 0.0
2017-Apr-26 09:59N 53°25' W 003°00'0 0.0
2017-Apr-26 09:29N 53°25' W 003°00'0 0.0
2017-Apr-26 08:59N 53°25' W 003°00'0 0.0
2017-Apr-26 08:29N 53°25' W 003°00'0 0.0
2017-Apr-26 07:59N 53°25' W 003°00'0 0.0
2017-Apr-26 07:29N 53°25' W 003°00'0 0.0
2017-Apr-26 06:59N 53°25' W 003°00'0 0.0
2017-Apr-26 06:29N 53°25' W 003°00'0 0.0
2017-Apr-26 05:59N 53°25' W 003°00'0 0.0
2017-Apr-26 05:26N 53°25' W 003°00'0 0.0
2017-Apr-26 04:59N 53°25' W 003°00'0 0.0
2017-Apr-26 04:29N 53°25' W 003°00'0 0.0
2017-Apr-26 03:59N 53°25' W 003°00'0 0.0
2017-Apr-26 03:29N 53°25' W 003°00'0 0.0
2017-Apr-26 02:59N 53°25' W 003°00'0 0.0
2017-Apr-26 02:29N 53°25' W 003°00'0 0.0
2017-Apr-26 01:59N 53°25' W 003°00'0 0.0
2017-Apr-26 01:29N 53°25' W 003°00'0 0.0
2017-Apr-26 00:58N 53°25' W 003°00'0 0.0
2017-Apr-26 00:28N 53°25' W 003°00'0 0.0
2017-Apr-25 23:55N 53°25' W 003°00'0 0.0
2017-Apr-25 23:28N 53°25' W 003°00'0 0.0
2017-Apr-25 22:58N 53°25' W 003°00'0 0.0
2017-Apr-25 22:28N 53°25' W 003°00'0 0.0
2017-Apr-25 21:58N 53°25' W 003°00'0 0.0
2017-Apr-25 21:25N 53°25' W 003°00'0 0.0
2017-Apr-25 20:58N 53°25' W 003°00'0 0.0
2017-Apr-25 20:25N 53°25' W 003°00'0 0.0
2017-Apr-25 19:55N 53°25' W 003°00'1 2.2
2017-Apr-25 19:28N 53°26' W 003°01'0 0.4
2017-Apr-25 19:00N 53°26' W 003°01'4 7.4
2017-Apr-25 18:30N 53°23' W 002°60'0 0.0
2017-Apr-25 18:00N 53°23' W 002°60'0 0.0
2017-Apr-25 17:30N 53°23' W 002°60'0 0.0
2017-Apr-25 16:57N 53°23' W 002°60'0 0.0
2017-Apr-25 16:30N 53°23' W 002°60'0 0.0
2017-Apr-25 15:57N 53°23' W 002°60'0 0.0
2017-Apr-25 15:30N 53°23' W 002°60'0 0.0
2017-Apr-25 15:00N 53°23' W 002°60'0 0.0
2017-Apr-25 14:30N 53°23' W 002°60'0 0.0
2017-Apr-25 13:30N 53°23' W 002°60'0 0.0
2017-Apr-25 13:00N 53°23' W 002°60'0 0.0
2017-Apr-25 12:30N 53°23' W 002°60'0 0.0
2017-Apr-25 12:00N 53°23' W 002°60'0 0.0
2017-Apr-25 11:30N 53°23' W 002°60'0 0.0
2017-Apr-25 11:00N 53°23' W 002°60'0 0.1
2017-Apr-25 10:30N 53°23' W 002°60'0 0.0
2017-Apr-25 10:00N 53°23' W 002°60'0 0.0
2017-Apr-25 09:30N 53°23' W 002°60'0 0.0
2017-Apr-25 09:00N 53°23' W 002°60'0 0.0
2017-Apr-25 08:27N 53°23' W 002°60'0 0.0
2017-Apr-25 08:00N 53°23' W 002°60'0 0.0
2017-Apr-25 07:30N 53°23' W 002°60'0 0.0
2017-Apr-25 07:00N 53°23' W 002°60'0 0.0
2017-Apr-25 06:30N 53°23' W 002°60'0 0.0
2017-Apr-25 06:00N 53°23' W 002°60'0 0.0
2017-Apr-25 05:30N 53°23' W 002°60'0 0.0
2017-Apr-25 05:00N 53°23' W 002°60'0 0.0
2017-Apr-25 04:30N 53°23' W 002°60'0 0.0
2017-Apr-25 04:00N 53°23' W 002°60'0 0.0
2017-Apr-25 03:30N 53°23' W 002°60'0 0.0
2017-Apr-25 02:59N 53°23' W 002°60'0 0.0
2017-Apr-25 02:29N 53°23' W 002°60'0 0.0
2017-Apr-25 01:56N 53°23' W 002°60'0 0.0
2017-Apr-25 01:29N 53°23' W 002°60'0 0.0
2017-Apr-25 00:53N 53°23' W 002°60'0 0.0
2017-Apr-25 00:29N 53°23' W 002°60'0 0.0
2017-Apr-24 23:59N 53°23' W 002°60'0 0.0
2017-Apr-24 23:29N 53°23' W 002°60'0 0.0
2017-Apr-24 22:59N 53°23' W 002°60'0 0.0
2017-Apr-24 22:29N 53°23' W 002°60'0 0.0
2017-Apr-24 21:59N 53°23' W 002°60'0 0.0
2017-Apr-24 21:29N 53°23' W 002°60'0 0.0
2017-Apr-24 20:59N 53°23' W 002°60'0 0.0
2017-Apr-24 20:29N 53°23' W 002°60'0 0.0
2017-Apr-24 19:59N 53°23' W 002°60'0 0.3
2017-Apr-24 19:30N 53°23' W 002°60'0 0.2
2017-Apr-24 18:58N 53°23' W 003°00'0 0.0
2017-Apr-24 18:28N 53°23' W 003°00'0 0.0
2017-Apr-24 17:55N 53°23' W 003°00'0 0.9
2017-Apr-24 17:30N 53°23' W 003°00'1 2.1
2017-Apr-24 16:59N 53°24' W 003°00'1 2.9
2017-Apr-24 16:29N 53°23' W 003°00'0 0.0
2017-Apr-24 15:59N 53°23' W 003°00'0 0.0
2017-Apr-24 15:23N 53°23' W 003°00'0 0.0
2017-Apr-24 14:59N 53°23' W 003°00'0 0.0
2017-Apr-24 14:29N 53°23' W 003°00'0 0.0
2017-Apr-24 13:29N 53°23' W 003°00'0 0.0
2017-Apr-24 12:58N 53°23' W 003°00'0 0.0
2017-Apr-24 12:22N 53°23' W 003°00'0 0.0
2017-Apr-24 11:58N 53°23' W 003°00'0 0.0
2017-Apr-24 11:28N 53°23' W 003°00'0 0.0
2017-Apr-24 10:58N 53°23' W 003°00'0 0.0
2017-Apr-24 10:28N 53°23' W 003°00'0 0.0
2017-Apr-24 09:58N 53°23' W 003°00'0 0.0
2017-Apr-24 09:28N 53°23' W 003°00'0 0.0
2017-Apr-24 08:58N 53°23' W 003°00'0 0.0
2017-Apr-24 08:25N 53°23' W 003°00'0 0.0
2017-Apr-24 07:58N 53°23' W 003°00'0 0.0
2017-Apr-24 07:25N 53°23' W 003°00'0 0.0
2017-Apr-24 06:58N 53°23' W 003°00'0 0.0
2017-Apr-24 06:28N 53°23' W 003°00'0 0.0
2017-Apr-24 05:58N 53°23' W 003°00'0 0.0
2017-Apr-24 05:28N 53°23' W 003°00'0 0.0
2017-Apr-24 04:58N 53°23' W 003°00'0 0.0
2017-Apr-24 04:28N 53°23' W 003°00'0 0.0
2017-Apr-24 03:58N 53°23' W 003°00'0 0.0
2017-Apr-24 03:28N 53°23' W 003°00'0 0.0
2017-Apr-24 02:52N 53°23' W 003°00'0 0.0
2017-Apr-24 02:28N 53°23' W 003°00'0 0.0
2017-Apr-24 01:58N 53°23' W 003°00'0 0.0
2017-Apr-24 01:28N 53°23' W 003°00'0 0.0
2017-Apr-24 00:58N 53°23' W 003°00'0 0.0
2017-Apr-24 00:25N 53°23' W 003°00'0 0.0
2017-Apr-23 23:58N 53°23' W 003°00'0 0.0
2017-Apr-23 23:28N 53°23' W 003°00'0 0.0
2017-Apr-23 22:58N 53°23' W 003°00'0 0.0
2017-Apr-23 22:28N 53°23' W 003°00'0 0.4
2017-Apr-23 21:59N 53°23' W 002°60'0 0.0
2017-Apr-23 21:29N 53°23' W 002°60'0 0.3
2017-Apr-23 20:59N 53°23' W 002°60'2 3.5
2017-Apr-23 20:30N 53°24' W 003°01'3 6.6
2017-Apr-23 20:00N 53°28' W 003°03'4 9.0
2017-Apr-23 19:30N 53°31' W 003°07'5 9.2
2017-Apr-23 19:00N 53°31' W 003°15'1 1.8
2017-Apr-23 18:30N 53°31' W 003°13'4 8.4
2017-Apr-23 18:00N 53°31' W 003°06'4 8.2
2017-Apr-23 17:30N 53°27' W 003°02'1 1.5
2017-Apr-23 16:56N 53°27' W 003°01'2 3.7
2017-Apr-23 16:29N 53°25' W 003°00'0 0.0
2017-Apr-23 15:59N 53°25' W 003°00'0 0.0
2017-Apr-23 15:29N 53°25' W 003°00'0 0.0
2017-Apr-23 14:59N 53°25' W 003°00'0 0.0
2017-Apr-23 13:59N 53°25' W 003°00'0 0.0
2017-Apr-23 13:29N 53°25' W 003°00'0 0.0
2017-Apr-23 12:59N 53°25' W 003°00'0 0.0
2017-Apr-23 12:26N 53°25' W 003°00'0 0.0
2017-Apr-23 11:59N 53°25' W 003°00'0 0.0
2017-Apr-23 11:29N 53°25' W 003°00'0 0.0
2017-Apr-23 10:59N 53°25' W 003°00'0 0.0
2017-Apr-23 10:29N 53°25' W 003°00'0 0.0
2017-Apr-23 09:59N 53°25' W 003°00'0 0.0
2017-Apr-23 09:29N 53°25' W 003°00'0 0.0
2017-Apr-23 08:59N 53°25' W 003°00'0 0.0
2017-Apr-23 08:29N 53°25' W 003°00'0 0.0
2017-Apr-23 07:59N 53°25' W 003°00'0 0.0
2017-Apr-23 07:29N 53°25' W 003°00'0 0.0
2017-Apr-23 06:58N 53°25' W 003°00'0 0.0
2017-Apr-23 06:25N 53°25' W 003°00'0 0.0
2017-Apr-23 05:55N 53°25' W 003°00'0 0.0
2017-Apr-23 05:25N 53°25' W 003°00'0 0.0
2017-Apr-23 04:58N 53°25' W 003°00'0 0.0
2017-Apr-23 04:25N 53°25' W 003°00'0 0.0
2017-Apr-23 03:58N 53°25' W 003°00'0 0.0
2017-Apr-23 03:28N 53°25' W 003°00'0 0.0
2017-Apr-23 02:58N 53°25' W 003°00'0 0.0
2017-Apr-23 02:28N 53°25' W 003°00'0 0.0
2017-Apr-23 01:58N 53°25' W 003°00'0 0.0
2017-Apr-23 01:25N 53°25' W 003°00'0 0.0
2017-Apr-23 00:58N 53°25' W 003°00'0 0.0
2017-Apr-23 00:28N 53°25' W 003°00'0 0.0
2017-Apr-22 23:58N 53°25' W 003°00'0 0.0
2017-Apr-22 23:28N 53°25' W 003°00'0 0.0
2017-Apr-22 22:52N 53°25' W 003°00'0 0.0
2017-Apr-22 22:28N 53°25' W 003°00'0 0.0
2017-Apr-22 21:58N 53°25' W 003°00'0 0.0
2017-Apr-22 21:28N 53°25' W 003°00'0 0.0
2017-Apr-22 20:55N 53°25' W 003°00'0 0.0
2017-Apr-22 20:25N 53°25' W 003°00'0 0.0
2017-Apr-22 19:58N 53°25' W 003°00'0 0.0
2017-Apr-22 19:28N 53°25' W 003°00'0 0.0
2017-Apr-22 18:55N 53°25' W 003°00'0 0.0
2017-Apr-22 18:28N 53°25' W 003°00'0 0.0
2017-Apr-22 17:55N 53°25' W 003°00'0 0.0
2017-Apr-22 17:28N 53°25' W 003°00'0 0.0
2017-Apr-22 16:55N 53°25' W 003°00'0 0.0
2017-Apr-22 16:28N 53°25' W 003°00'0 0.0
2017-Apr-22 15:58N 53°25' W 003°00'0 0.0
2017-Apr-22 15:28N 53°25' W 003°00'0 0.0
2017-Apr-22 14:52N 53°25' W 003°00'0 0.0
2017-Apr-22 14:28N 53°25' W 003°00'0 0.0
2017-Apr-22 13:25N 53°25' W 003°00'0 0.0
2017-Apr-22 12:58N 53°25' W 003°00'0 0.0
2017-Apr-22 12:28N 53°25' W 003°00'0 0.0
2017-Apr-22 11:58N 53°25' W 003°00'0 0.0
2017-Apr-22 11:28N 53°25' W 003°00'0 0.0
2017-Apr-22 10:58N 53°25' W 003°00'0 0.0
2017-Apr-22 10:28N 53°25' W 003°00'0 0.0
2017-Apr-22 09:55N 53°25' W 003°00'0 0.0
2017-Apr-22 09:28N 53°25' W 003°00'0 0.0
2017-Apr-22 08:55N 53°25' W 003°00'0 0.0
2017-Apr-22 08:28N 53°25' W 003°00'0 0.0
2017-Apr-22 07:55N 53°25' W 003°00'0 0.0
2017-Apr-22 07:28N 53°25' W 003°00'1 2.1
2017-Apr-22 07:00N 53°26' W 003°00'1 2.5
2017-Apr-22 06:30N 53°28' W 003°01'0 0.6
2017-Apr-22 05:57N 53°27' W 003°01'0 0.4
2017-Apr-22 05:30N 53°27' W 003°01'0 0.2
2017-Apr-22 04:54N 53°27' W 003°01'0 0.6
2017-Apr-22 04:30N 53°27' W 003°01'0 0.9
2017-Apr-22 03:58N 53°28' W 003°02'0 0.6
2017-Apr-22 03:25N 53°28' W 003°01'0 0.0
2017-Apr-22 02:58N 53°28' W 003°01'0 0.0
2017-Apr-22 02:25N 53°28' W 003°01'0 0.0
2017-Apr-22 01:58N 53°28' W 003°01'0 0.0
2017-Apr-22 01:28N 53°28' W 003°01'0 0.0
2017-Apr-22 00:58N 53°28' W 003°01'0 0.0
2017-Apr-22 00:22N 53°28' W 003°01'0 0.0
2017-Apr-21 23:55N 53°28' W 003°01'0 0.0
2017-Apr-21 23:25N 53°28' W 003°01'0 0.0
2017-Apr-21 22:58N 53°28' W 003°01'0 0.0
2017-Apr-21 22:28N 53°28' W 003°01'0 0.0
2017-Apr-21 21:58N 53°28' W 003°01'0 0.0
2017-Apr-21 21:28N 53°28' W 003°01'0 0.0
2017-Apr-21 20:58N 53°28' W 003°01'0 0.0
2017-Apr-21 20:28N 53°28' W 003°01'0 0.5
2017-Apr-21 19:52N 53°28' W 003°01'0 1.0
2017-Apr-21 19:28N 53°27' W 003°01'0 0.4
2017-Apr-21 18:59N 53°27' W 003°01'0 0.2
2017-Apr-21 18:27N 53°27' W 003°01'0 0.3
2017-Apr-21 17:58N 53°27' W 003°01'0 0.5
2017-Apr-21 17:28N 53°27' W 003°01'1 2.3
2017-Apr-21 16:59N 53°26' W 003°00'1 1.7
2017-Apr-21 16:30N 53°25' W 003°00'0 0.0
2017-Apr-21 15:54N 53°25' W 003°00'0 0.0
2017-Apr-21 15:27N 53°25' W 003°00'0 0.0
2017-Apr-21 15:00N 53°25' W 003°00'0 0.0
2017-Apr-21 14:30N 53°25' W 003°00'0 0.0
2017-Apr-21 13:30N 53°25' W 003°00'0 0.0
2017-Apr-21 13:00N 53°25' W 003°00'0 0.0
2017-Apr-21 12:30N 53°25' W 003°00'0 0.0
2017-Apr-21 12:00N 53°25' W 003°00'0 0.0
2017-Apr-21 11:27N 53°25' W 003°00'0 0.0
2017-Apr-21 11:00N 53°25' W 003°00'0 0.0
2017-Apr-21 10:27N 53°25' W 003°00'0 0.0
2017-Apr-21 10:00N 53°25' W 003°00'0 0.0
2017-Apr-21 09:30N 53°25' W 003°00'0 0.0
2017-Apr-21 08:57N 53°25' W 003°00'0 0.0
2017-Apr-21 08:27N 53°25' W 003°00'0 0.0
2017-Apr-21 07:48N 53°25' W 003°00'0 0.0
2017-Apr-21 07:30N 53°25' W 003°00'0 0.0
2017-Apr-21 07:00N 53°25' W 003°00'0 0.0
2017-Apr-21 06:30N 53°25' W 003°00'0 0.0
2017-Apr-21 06:00N 53°25' W 003°00'0 0.0
2017-Apr-21 05:30N 53°25' W 003°00'0 0.0
2017-Apr-21 04:57N 53°25' W 003°00'0 0.0
2017-Apr-21 04:30N 53°25' W 003°00'0 0.0
2017-Apr-21 04:00N 53°25' W 003°00'  

Dump ship's entire track history